sensor_id;sensor_type;location;lat;lon;timestamp;P1;durP1;ratioP1;P2;durP2;ratioP2
9208;SDS011;4639;48.862;9.188;2023-06-19T00:01:12;6.65;;;6.05;;
9208;SDS011;4639;48.862;9.188;2023-06-19T00:03:37;9.50;;;6.10;;
9208;SDS011;4639;48.862;9.188;2023-06-19T00:06:03;6.78;;;5.97;;
9208;SDS011;4639;48.862;9.188;2023-06-19T00:08:29;6.10;;;5.60;;
9208;SDS011;4639;48.862;9.188;2023-06-19T00:10:55;6.90;;;6.22;;
9208;SDS011;4639;48.862;9.188;2023-06-19T00:13:21;7.05;;;6.00;;
9208;SDS011;4639;48.862;9.188;2023-06-19T00:15:46;7.68;;;6.00;;
9208;SDS011;4639;48.862;9.188;2023-06-19T00:18:12;8.73;;;5.90;;
9208;SDS011;4639;48.862;9.188;2023-06-19T00:20:38;6.97;;;5.78;;
9208;SDS011;4639;48.862;9.188;2023-06-19T00:23:04;6.53;;;5.93;;
9208;SDS011;4639;48.862;9.188;2023-06-19T00:25:31;6.60;;;6.00;;
9208;SDS011;4639;48.862;9.188;2023-06-19T00:27:57;6.38;;;5.75;;
9208;SDS011;4639;48.862;9.188;2023-06-19T00:30:22;7.18;;;6.47;;
9208;SDS011;4639;48.862;9.188;2023-06-19T00:32:48;7.20;;;5.95;;
9208;SDS011;4639;48.862;9.188;2023-06-19T00:35:15;7.93;;;6.28;;
9208;SDS011;4639;48.862;9.188;2023-06-19T00:37:43;6.25;;;5.68;;
9208;SDS011;4639;48.862;9.188;2023-06-19T00:40:14;6.53;;;5.88;;
9208;SDS011;4639;48.862;9.188;2023-06-19T00:42:46;6.78;;;6.07;;
9208;SDS011;4639;48.862;9.188;2023-06-19T00:45:11;7.10;;;6.40;;
9208;SDS011;4639;48.862;9.188;2023-06-19T00:47:37;9.93;;;6.45;;
9208;SDS011;4639;48.862;9.188;2023-06-19T00:50:03;6.47;;;5.88;;
9208;SDS011;4639;48.862;9.188;2023-06-19T00:52:29;8.52;;;5.85;;
9208;SDS011;4639;48.862;9.188;2023-06-19T00:54:55;6.60;;;6.00;;
9208;SDS011;4639;48.862;9.188;2023-06-19T00:57:21;7.75;;;6.38;;
9208;SDS011;4639;48.862;9.188;2023-06-19T00:59:47;8.80;;;6.60;;
9208;SDS011;4639;48.862;9.188;2023-06-19T01:02:13;7.30;;;6.07;;
9208;SDS011;4639;48.862;9.188;2023-06-19T01:04:39;6.70;;;6.10;;
9208;SDS011;4639;48.862;9.188;2023-06-19T01:07:08;7.00;;;6.32;;
9208;SDS011;4639;48.862;9.188;2023-06-19T01:09:38;6.90;;;5.95;;
9208;SDS011;4639;48.862;9.188;2023-06-19T01:12:38;6.80;;;6.18;;
9208;SDS011;4639;48.862;9.188;2023-06-19T01:15:13;10.90;;;5.18;;
9208;SDS011;4639;48.862;9.188;2023-06-19T01:17:39;9.23;;;5.40;;
9208;SDS011;4639;48.862;9.188;2023-06-19T01:20:05;7.68;;;5.35;;
9208;SDS011;4639;48.862;9.188;2023-06-19T01:22:35;5.63;;;5.13;;
9208;SDS011;4639;48.862;9.188;2023-06-19T01:25:01;7.43;;;4.90;;
9208;SDS011;4639;48.862;9.188;2023-06-19T01:27:29;6.93;;;5.05;;
9208;SDS011;4639;48.862;9.188;2023-06-19T01:29:55;7.07;;;4.93;;
9208;SDS011;4639;48.862;9.188;2023-06-19T01:32:31;6.55;;;4.88;;
9208;SDS011;4639;48.862;9.188;2023-06-19T01:34:59;4.40;;;3.92;;
9208;SDS011;4639;48.862;9.188;2023-06-19T01:37:28;5.00;;;4.35;;
9208;SDS011;4639;48.862;9.188;2023-06-19T01:39:57;11.68;;;4.22;;
9208;SDS011;4639;48.862;9.188;2023-06-19T01:42:24;5.68;;;4.18;;
9208;SDS011;4639;48.862;9.188;2023-06-19T01:44:51;5.43;;;3.20;;
9208;SDS011;4639;48.862;9.188;2023-06-19T01:47:18;5.43;;;3.30;;
9208;SDS011;4639;48.862;9.188;2023-06-19T01:49:48;6.55;;;3.67;;
9208;SDS011;4639;48.862;9.188;2023-06-19T01:52:14;4.15;;;3.25;;
9208;SDS011;4639;48.862;9.188;2023-06-19T01:54:40;7.20;;;3.45;;
9208;SDS011;4639;48.862;9.188;2023-06-19T01:57:05;6.28;;;3.40;;
9208;SDS011;4639;48.862;9.188;2023-06-19T01:59:31;5.22;;;3.60;;
9208;SDS011;4639;48.862;9.188;2023-06-19T02:01:57;4.80;;;3.60;;
9208;SDS011;4639;48.862;9.188;2023-06-19T02:04:22;6.13;;;3.60;;
9208;SDS011;4639;48.862;9.188;2023-06-19T02:06:48;7.28;;;3.72;;
9208;SDS011;4639;48.862;9.188;2023-06-19T02:09:14;4.72;;;3.33;;
9208;SDS011;4639;48.862;9.188;2023-06-19T02:11:39;4.65;;;3.03;;
9208;SDS011;4639;48.862;9.188;2023-06-19T02:14:05;3.60;;;3.30;;
9208;SDS011;4639;48.862;9.188;2023-06-19T02:16:30;4.47;;;3.83;;
9208;SDS011;4639;48.862;9.188;2023-06-19T02:18:56;4.07;;;3.15;;
9208;SDS011;4639;48.862;9.188;2023-06-19T02:21:22;3.75;;;3.13;;
9208;SDS011;4639;48.862;9.188;2023-06-19T02:23:48;4.68;;;3.30;;
9208;SDS011;4639;48.862;9.188;2023-06-19T02:26:15;3.80;;;3.40;;
9208;SDS011;4639;48.862;9.188;2023-06-19T02:28:40;5.95;;;3.30;;
9208;SDS011;4639;48.862;9.188;2023-06-19T02:31:06;3.70;;;3.40;;
9208;SDS011;4639;48.862;9.188;2023-06-19T02:33:31;3.97;;;2.92;;
9208;SDS011;4639;48.862;9.188;2023-06-19T02:35:57;3.95;;;3.38;;
9208;SDS011;4639;48.862;9.188;2023-06-19T02:38:24;3.53;;;2.90;;
9208;SDS011;4639;48.862;9.188;2023-06-19T02:43:59;3.92;;;3.55;;
9208;SDS011;4639;48.862;9.188;2023-06-19T02:46:25;4.07;;;2.88;;
9208;SDS011;4639;48.862;9.188;2023-06-19T02:48:50;3.42;;;3.13;;
9208;SDS011;4639;48.862;9.188;2023-06-19T02:51:16;5.22;;;3.15;;
9208;SDS011;4639;48.862;9.188;2023-06-19T02:53:41;5.32;;;3.10;;
9208;SDS011;4639;48.862;9.188;2023-06-19T02:56:08;2.88;;;2.67;;
9208;SDS011;4639;48.862;9.188;2023-06-19T02:58:34;4.65;;;3.20;;
9208;SDS011;4639;48.862;9.188;2023-06-19T03:01:02;8.30;;;3.53;;
9208;SDS011;4639;48.862;9.188;2023-06-19T03:03:28;11.07;;;3.65;;
9208;SDS011;4639;48.862;9.188;2023-06-19T03:05:55;3.97;;;3.47;;
9208;SDS011;4639;48.862;9.188;2023-06-19T03:08:21;5.38;;;3.20;;
9208;SDS011;4639;48.862;9.188;2023-06-19T03:10:46;5.30;;;3.42;;
9208;SDS011;4639;48.862;9.188;2023-06-19T03:13:12;5.53;;;3.28;;
9208;SDS011;4639;48.862;9.188;2023-06-19T03:15:38;6.22;;;3.45;;
9208;SDS011;4639;48.862;9.188;2023-06-19T03:18:04;3.50;;;3.20;;
9208;SDS011;4639;48.862;9.188;2023-06-19T03:20:32;3.60;;;3.22;;
9208;SDS011;4639;48.862;9.188;2023-06-19T03:22:58;3.47;;;3.17;;
9208;SDS011;4639;48.862;9.188;2023-06-19T03:25:24;4.18;;;3.30;;
9208;SDS011;4639;48.862;9.188;2023-06-19T03:27:49;3.45;;;3.15;;
9208;SDS011;4639;48.862;9.188;2023-06-19T03:30:15;5.75;;;3.13;;
9208;SDS011;4639;48.862;9.188;2023-06-19T03:32:43;5.05;;;3.15;;
9208;SDS011;4639;48.862;9.188;2023-06-19T03:35:09;3.17;;;2.88;;
9208;SDS011;4639;48.862;9.188;2023-06-19T03:37:35;3.40;;;3.10;;
9208;SDS011;4639;48.862;9.188;2023-06-19T03:40:01;5.78;;;3.10;;
9208;SDS011;4639;48.862;9.188;2023-06-19T03:42:28;3.40;;;2.80;;
9208;SDS011;4639;48.862;9.188;2023-06-19T03:44:54;3.30;;;2.90;;
9208;SDS011;4639;48.862;9.188;2023-06-19T03:47:19;2.88;;;2.65;;
9208;SDS011;4639;48.862;9.188;2023-06-19T03:49:45;2.90;;;2.60;;
9208;SDS011;4639;48.862;9.188;2023-06-19T03:52:11;2.88;;;2.60;;
9208;SDS011;4639;48.862;9.188;2023-06-19T03:54:36;2.97;;;2.70;;
9208;SDS011;4639;48.862;9.188;2023-06-19T03:57:02;2.60;;;2.40;;
9208;SDS011;4639;48.862;9.188;2023-06-19T03:59:28;2.67;;;2.45;;
9208;SDS011;4639;48.862;9.188;2023-06-19T04:01:53;3.03;;;2.40;;
9208;SDS011;4639;48.862;9.188;2023-06-19T04:04:19;2.60;;;2.33;;
9208;SDS011;4639;48.862;9.188;2023-06-19T04:06:45;4.97;;;2.40;;
9208;SDS011;4639;48.862;9.188;2023-06-19T04:09:11;3.78;;;2.95;;
9208;SDS011;4639;48.862;9.188;2023-06-19T04:11:38;2.45;;;2.25;;
9208;SDS011;4639;48.862;9.188;2023-06-19T04:14:03;11.13;;;3.20;;
9208;SDS011;4639;48.862;9.188;2023-06-19T04:16:29;3.33;;;2.30;;
9208;SDS011;4639;48.862;9.188;2023-06-19T04:18:54;2.75;;;2.50;;
9208;SDS011;4639;48.862;9.188;2023-06-19T04:21:20;2.63;;;2.13;;
9208;SDS011;4639;48.862;9.188;2023-06-19T04:23:45;6.22;;;2.50;;
9208;SDS011;4639;48.862;9.188;2023-06-19T04:26:11;2.70;;;2.50;;
9208;SDS011;4639;48.862;9.188;2023-06-19T04:28:36;4.68;;;2.45;;
9208;SDS011;4639;48.862;9.188;2023-06-19T04:31:02;2.60;;;2.40;;
9208;SDS011;4639;48.862;9.188;2023-06-19T04:33:28;2.53;;;2.33;;
9208;SDS011;4639;48.862;9.188;2023-06-19T04:35:57;2.75;;;2.55;;
9208;SDS011;4639;48.862;9.188;2023-06-19T04:38:22;2.92;;;2.63;;
9208;SDS011;4639;48.862;9.188;2023-06-19T04:40:48;2.60;;;2.40;;
9208;SDS011;4639;48.862;9.188;2023-06-19T04:43:15;3.83;;;2.47;;
9208;SDS011;4639;48.862;9.188;2023-06-19T04:45:40;2.58;;;2.38;;
9208;SDS011;4639;48.862;9.188;2023-06-19T04:48:06;2.67;;;2.20;;
9208;SDS011;4639;48.862;9.188;2023-06-19T04:50:32;2.58;;;2.38;;
9208;SDS011;4639;48.862;9.188;2023-06-19T04:52:57;2.60;;;2.40;;
9208;SDS011;4639;48.862;9.188;2023-06-19T04:55:23;2.97;;;2.67;;
9208;SDS011;4639;48.862;9.188;2023-06-19T04:57:50;2.53;;;2.33;;
9208;SDS011;4639;48.862;9.188;2023-06-19T05:00:16;4.22;;;2.80;;
9208;SDS011;4639;48.862;9.188;2023-06-19T05:02:44;3.50;;;2.53;;
9208;SDS011;4639;48.862;9.188;2023-06-19T05:05:12;2.60;;;2.40;;
9208;SDS011;4639;48.862;9.188;2023-06-19T05:07:38;2.83;;;2.60;;
9208;SDS011;4639;48.862;9.188;2023-06-19T05:10:04;2.72;;;2.50;;
9208;SDS011;4639;48.862;9.188;2023-06-19T05:12:30;4.60;;;2.42;;
9208;SDS011;4639;48.862;9.188;2023-06-19T05:17:37;4.10;;;2.83;;
9208;SDS011;4639;48.862;9.188;2023-06-19T05:20:04;2.50;;;2.30;;
9208;SDS011;4639;48.862;9.188;2023-06-19T05:22:32;2.83;;;2.60;;
9208;SDS011;4639;48.862;9.188;2023-06-19T05:24:59;5.13;;;2.50;;
9208;SDS011;4639;48.862;9.188;2023-06-19T05:27:25;2.72;;;2.53;;
9208;SDS011;4639;48.862;9.188;2023-06-19T05:29:50;3.97;;;2.42;;
9208;SDS011;4639;48.862;9.188;2023-06-19T05:32:16;3.20;;;2.90;;
9208;SDS011;4639;48.862;9.188;2023-06-19T05:34:41;3.10;;;2.75;;
9208;SDS011;4639;48.862;9.188;2023-06-19T05:37:07;3.78;;;2.70;;
9208;SDS011;4639;48.862;9.188;2023-06-19T05:39:32;3.83;;;3.03;;
9208;SDS011;4639;48.862;9.188;2023-06-19T05:41:58;2.85;;;2.55;;
9208;SDS011;4639;48.862;9.188;2023-06-19T05:44:24;5.65;;;3.55;;
9208;SDS011;4639;48.862;9.188;2023-06-19T05:46:49;2.85;;;2.60;;
9208;SDS011;4639;48.862;9.188;2023-06-19T05:49:15;3.08;;;2.60;;
9208;SDS011;4639;48.862;9.188;2023-06-19T05:51:40;2.80;;;2.60;;
9208;SDS011;4639;48.862;9.188;2023-06-19T05:54:06;3.90;;;2.67;;
9208;SDS011;4639;48.862;9.188;2023-06-19T05:56:32;3.95;;;2.88;;
9208;SDS011;4639;48.862;9.188;2023-06-19T05:58:58;2.78;;;2.58;;
9208;SDS011;4639;48.862;9.188;2023-06-19T06:01:25;3.63;;;2.80;;
9208;SDS011;4639;48.862;9.188;2023-06-19T06:03:52;2.75;;;2.45;;
9208;SDS011;4639;48.862;9.188;2023-06-19T06:06:19;6.07;;;2.85;;
9208;SDS011;4639;48.862;9.188;2023-06-19T06:08:44;5.15;;;2.55;;
9208;SDS011;4639;48.862;9.188;2023-06-19T06:11:10;2.90;;;2.65;;
9208;SDS011;4639;48.862;9.188;2023-06-19T06:13:35;5.03;;;2.95;;
9208;SDS011;4639;48.862;9.188;2023-06-19T06:16:01;4.07;;;2.55;;
9208;SDS011;4639;48.862;9.188;2023-06-19T06:18:27;4.47;;;2.63;;
9208;SDS011;4639;48.862;9.188;2023-06-19T06:20:52;2.55;;;2.33;;
9208;SDS011;4639;48.862;9.188;2023-06-19T06:23:18;2.50;;;2.00;;
9208;SDS011;4639;48.862;9.188;2023-06-19T06:25:43;2.50;;;2.30;;
9208;SDS011;4639;48.862;9.188;2023-06-19T06:28:10;2.67;;;2.38;;
9208;SDS011;4639;48.862;9.188;2023-06-19T06:30:36;2.97;;;2.05;;
9208;SDS011;4639;48.862;9.188;2023-06-19T06:33:02;3.13;;;2.78;;
9208;SDS011;4639;48.862;9.188;2023-06-19T06:35:27;4.70;;;2.67;;
9208;SDS011;4639;48.862;9.188;2023-06-19T06:37:53;2.72;;;2.47;;
9208;SDS011;4639;48.862;9.188;2023-06-19T06:40:19;2.72;;;2.47;;
9208;SDS011;4639;48.862;9.188;2023-06-19T06:42:44;3.20;;;2.60;;
9208;SDS011;4639;48.862;9.188;2023-06-19T06:45:10;3.10;;;2.60;;
9208;SDS011;4639;48.862;9.188;2023-06-19T06:47:35;2.70;;;2.47;;
9208;SDS011;4639;48.862;9.188;2023-06-19T06:50:01;8.25;;;2.63;;
9208;SDS011;4639;48.862;9.188;2023-06-19T06:52:27;3.80;;;2.50;;
9208;SDS011;4639;48.862;9.188;2023-06-19T06:54:53;2.40;;;2.20;;
9208;SDS011;4639;48.862;9.188;2023-06-19T06:57:18;3.35;;;2.67;;
9208;SDS011;4639;48.862;9.188;2023-06-19T06:59:44;2.63;;;2.42;;
9208;SDS011;4639;48.862;9.188;2023-06-19T07:02:09;2.40;;;2.20;;
9208;SDS011;4639;48.862;9.188;2023-06-19T07:04:35;2.28;;;2.08;;
9208;SDS011;4639;48.862;9.188;2023-06-19T07:07:01;3.90;;;1.92;;
9208;SDS011;4639;48.862;9.188;2023-06-19T07:09:28;2.60;;;2.00;;
9208;SDS011;4639;48.862;9.188;2023-06-19T07:11:54;2.20;;;2.00;;
9208;SDS011;4639;48.862;9.188;2023-06-19T07:14:20;2.72;;;2.20;;
9208;SDS011;4639;48.862;9.188;2023-06-19T07:16:45;2.10;;;2.00;;
9208;SDS011;4639;48.862;9.188;2023-06-19T07:19:11;3.85;;;2.00;;
9208;SDS011;4639;48.862;9.188;2023-06-19T07:21:40;3.47;;;2.10;;
9208;SDS011;4639;48.862;9.188;2023-06-19T07:24:06;2.50;;;1.80;;
9208;SDS011;4639;48.862;9.188;2023-06-19T07:26:31;3.88;;;2.20;;
9208;SDS011;4639;48.862;9.188;2023-06-19T07:28:57;2.20;;;2.00;;
9208;SDS011;4639;48.862;9.188;2023-06-19T07:31:23;2.38;;;2.17;;
9208;SDS011;4639;48.862;9.188;2023-06-19T07:33:48;3.28;;;2.55;;
9208;SDS011;4639;48.862;9.188;2023-06-19T07:36:14;4.43;;;2.40;;
9208;SDS011;4639;48.862;9.188;2023-06-19T07:38:41;2.33;;;2.13;;
9208;SDS011;4639;48.862;9.188;2023-06-19T07:41:08;2.30;;;2.10;;
9208;SDS011;4639;48.862;9.188;2023-06-19T07:43:35;2.20;;;2.00;;
9208;SDS011;4639;48.862;9.188;2023-06-19T07:46:00;4.32;;;2.10;;
9208;SDS011;4639;48.862;9.188;2023-06-19T07:48:26;3.72;;;2.28;;
9208;SDS011;4639;48.862;9.188;2023-06-19T07:50:53;3.80;;;2.20;;
9208;SDS011;4639;48.862;9.188;2023-06-19T07:53:19;3.17;;;2.45;;
9208;SDS011;4639;48.862;9.188;2023-06-19T07:55:44;2.30;;;2.10;;
9208;SDS011;4639;48.862;9.188;2023-06-19T07:58:10;2.42;;;2.20;;
9208;SDS011;4639;48.862;9.188;2023-06-19T08:00:36;3.22;;;2.22;;
9208;SDS011;4639;48.862;9.188;2023-06-19T08:03:01;2.63;;;2.20;;
9208;SDS011;4639;48.862;9.188;2023-06-19T08:05:27;3.40;;;2.00;;
9208;SDS011;4639;48.862;9.188;2023-06-19T08:07:52;4.93;;;2.20;;
9208;SDS011;4639;48.862;9.188;2023-06-19T08:10:18;3.90;;;2.05;;
9208;SDS011;4639;48.862;9.188;2023-06-19T08:12:44;8.23;;;2.65;;
9208;SDS011;4639;48.862;9.188;2023-06-19T08:15:10;2.47;;;2.28;;
9208;SDS011;4639;48.862;9.188;2023-06-19T08:17:36;3.25;;;2.20;;
9208;SDS011;4639;48.862;9.188;2023-06-19T08:20:02;2.38;;;2.17;;
9208;SDS011;4639;48.862;9.188;2023-06-19T08:22:30;2.33;;;2.13;;
9208;SDS011;4639;48.862;9.188;2023-06-19T08:24:56;2.10;;;1.90;;
9208;SDS011;4639;48.862;9.188;2023-06-19T08:27:22;2.47;;;2.25;;
9208;SDS011;4639;48.862;9.188;2023-06-19T08:29:47;2.38;;;2.00;;
9208;SDS011;4639;48.862;9.188;2023-06-19T08:32:13;2.15;;;1.95;;
9208;SDS011;4639;48.862;9.188;2023-06-19T08:34:38;2.28;;;2.10;;
9208;SDS011;4639;48.862;9.188;2023-06-19T08:37:05;2.33;;;2.13;;
9208;SDS011;4639;48.862;9.188;2023-06-19T08:39:31;4.18;;;2.30;;
9208;SDS011;4639;48.862;9.188;2023-06-19T08:41:57;4.25;;;2.10;;
9208;SDS011;4639;48.862;9.188;2023-06-19T08:44:22;4.15;;;2.22;;
9208;SDS011;4639;48.862;9.188;2023-06-19T08:46:48;3.00;;;2.10;;
9208;SDS011;4639;48.862;9.188;2023-06-19T08:49:13;3.20;;;2.38;;
9208;SDS011;4639;48.862;9.188;2023-06-19T08:51:42;2.20;;;2.00;;
9208;SDS011;4639;48.862;9.188;2023-06-19T08:54:08;4.40;;;2.60;;
9208;SDS011;4639;48.862;9.188;2023-06-19T08:56:34;2.30;;;2.10;;
9208;SDS011;4639;48.862;9.188;2023-06-19T08:59:11;5.20;;;2.40;;
9208;SDS011;4639;48.862;9.188;2023-06-19T09:01:48;4.75;;;2.47;;
9208;SDS011;4639;48.862;9.188;2023-06-19T09:04:17;4.78;;;2.38;;
9208;SDS011;4639;48.862;9.188;2023-06-19T09:09:43;3.78;;;2.40;;
9208;SDS011;4639;48.862;9.188;2023-06-19T09:12:12;3.30;;;2.20;;
9208;SDS011;4639;48.862;9.188;2023-06-19T09:14:39;2.53;;;2.33;;
9208;SDS011;4639;48.862;9.188;2023-06-19T09:17:12;2.97;;;2.28;;
9208;SDS011;4639;48.862;9.188;2023-06-19T09:19:48;4.45;;;2.55;;
9208;SDS011;4639;48.862;9.188;2023-06-19T09:22:16;2.40;;;2.20;;
9208;SDS011;4639;48.862;9.188;2023-06-19T09:24:45;2.55;;;2.28;;
9208;SDS011;4639;48.862;9.188;2023-06-19T09:27:12;3.20;;;2.35;;
9208;SDS011;4639;48.862;9.188;2023-06-19T09:29:43;2.55;;;2.35;;
9208;SDS011;4639;48.862;9.188;2023-06-19T09:32:26;5.85;;;2.60;;
9208;SDS011;4639;48.862;9.188;2023-06-19T09:34:54;3.15;;;2.45;;
9208;SDS011;4639;48.862;9.188;2023-06-19T09:37:24;4.60;;;2.28;;
9208;SDS011;4639;48.862;9.188;2023-06-19T09:39:52;4.32;;;2.40;;
9208;SDS011;4639;48.862;9.188;2023-06-19T09:42:25;2.40;;;2.20;;
9208;SDS011;4639;48.862;9.188;2023-06-19T09:44:59;2.50;;;2.30;;
9208;SDS011;4639;48.862;9.188;2023-06-19T09:47:29;8.20;;;2.50;;
9208;SDS011;4639;48.862;9.188;2023-06-19T09:49:56;4.82;;;2.45;;
9208;SDS011;4639;48.862;9.188;2023-06-19T09:52:23;3.22;;;2.42;;
9208;SDS011;4639;48.862;9.188;2023-06-19T09:54:52;2.70;;;2.50;;
9208;SDS011;4639;48.862;9.188;2023-06-19T09:57:20;4.85;;;2.80;;
9208;SDS011;4639;48.862;9.188;2023-06-19T09:59:46;4.05;;;2.83;;
9208;SDS011;4639;48.862;9.188;2023-06-19T10:02:14;3.15;;;2.08;;
9208;SDS011;4639;48.862;9.188;2023-06-19T10:04:42;3.75;;;2.70;;
9208;SDS011;4639;48.862;9.188;2023-06-19T10:07:15;3.85;;;2.92;;
9208;SDS011;4639;48.862;9.188;2023-06-19T10:09:41;2.90;;;2.65;;
9208;SDS011;4639;48.862;9.188;2023-06-19T10:12:13;2.60;;;2.35;;
9208;SDS011;4639;48.862;9.188;2023-06-19T10:14:44;7.13;;;2.55;;
9208;SDS011;4639;48.862;9.188;2023-06-19T10:17:16;3.25;;;2.65;;
9208;SDS011;4639;48.862;9.188;2023-06-19T10:19:48;3.55;;;2.83;;
9208;SDS011;4639;48.862;9.188;2023-06-19T10:22:19;3.00;;;2.70;;
9208;SDS011;4639;48.862;9.188;2023-06-19T10:24:49;3.63;;;2.45;;
9208;SDS011;4639;48.862;9.188;2023-06-19T10:27:20;4.22;;;2.60;;
9208;SDS011;4639;48.862;9.188;2023-06-19T10:29:51;2.50;;;2.30;;
9208;SDS011;4639;48.862;9.188;2023-06-19T10:32:18;5.15;;;2.50;;
9208;SDS011;4639;48.862;9.188;2023-06-19T10:34:47;3.22;;;2.92;;
9208;SDS011;4639;48.862;9.188;2023-06-19T10:37:16;6.63;;;2.92;;
9208;SDS011;4639;48.862;9.188;2023-06-19T10:39:42;3.50;;;2.42;;
9208;SDS011;4639;48.862;9.188;2023-06-19T10:42:09;3.22;;;2.53;;
9208;SDS011;4639;48.862;9.188;2023-06-19T10:44:35;2.88;;;2.67;;
9208;SDS011;4639;48.862;9.188;2023-06-19T10:47:03;4.10;;;2.40;;
9208;SDS011;4639;48.862;9.188;2023-06-19T10:49:29;2.75;;;2.50;;
9208;SDS011;4639;48.862;9.188;2023-06-19T10:51:55;3.67;;;2.25;;
9208;SDS011;4639;48.862;9.188;2023-06-19T10:54:24;2.70;;;2.50;;
9208;SDS011;4639;48.862;9.188;2023-06-19T10:56:51;2.80;;;2.60;;
9208;SDS011;4639;48.862;9.188;2023-06-19T10:59:16;2.47;;;2.28;;
9208;SDS011;4639;48.862;9.188;2023-06-19T11:01:44;3.17;;;2.53;;
9208;SDS011;4639;48.862;9.188;2023-06-19T11:04:11;3.03;;;2.72;;
9208;SDS011;4639;48.862;9.188;2023-06-19T11:06:39;5.55;;;2.70;;
9208;SDS011;4639;48.862;9.188;2023-06-19T11:09:05;3.53;;;3.15;;
9208;SDS011;4639;48.862;9.188;2023-06-19T11:11:43;3.00;;;2.70;;
9208;SDS011;4639;48.862;9.188;2023-06-19T11:14:11;3.17;;;2.78;;
9208;SDS011;4639;48.862;9.188;2023-06-19T11:16:38;5.15;;;3.00;;
9208;SDS011;4639;48.862;9.188;2023-06-19T11:19:09;2.70;;;2.50;;
9208;SDS011;4639;48.862;9.188;2023-06-19T11:21:38;2.60;;;2.40;;
9208;SDS011;4639;48.862;9.188;2023-06-19T11:24:05;2.97;;;2.78;;
9208;SDS011;4639;48.862;9.188;2023-06-19T11:26:38;2.80;;;2.60;;
9208;SDS011;4639;48.862;9.188;2023-06-19T11:29:21;3.15;;;2.80;;
9208;SDS011;4639;48.862;9.188;2023-06-19T11:32:07;5.28;;;2.90;;
9208;SDS011;4639;48.862;9.188;2023-06-19T11:34:40;2.83;;;2.50;;
9208;SDS011;4639;48.862;9.188;2023-06-19T11:39:46;2.70;;;2.50;;
9208;SDS011;4639;48.862;9.188;2023-06-19T11:42:13;2.72;;;2.53;;
9208;SDS011;4639;48.862;9.188;2023-06-19T11:44:56;2.67;;;2.47;;
9208;SDS011;4639;48.862;9.188;2023-06-19T11:47:26;6.25;;;2.75;;
9208;SDS011;4639;48.862;9.188;2023-06-19T11:49:55;4.95;;;2.95;;
9208;SDS011;4639;48.862;9.188;2023-06-19T11:52:21;3.00;;;2.80;;
9208;SDS011;4639;48.862;9.188;2023-06-19T11:54:46;3.17;;;2.80;;
9208;SDS011;4639;48.862;9.188;2023-06-19T11:57:12;3.40;;;2.70;;
9208;SDS011;4639;48.862;9.188;2023-06-19T11:59:41;3.40;;;2.72;;
9208;SDS011;4639;48.862;9.188;2023-06-19T12:02:08;3.75;;;2.72;;
9208;SDS011;4639;48.862;9.188;2023-06-19T12:04:34;4.05;;;2.90;;
9208;SDS011;4639;48.862;9.188;2023-06-19T12:07:00;3.58;;;2.42;;
9208;SDS011;4639;48.862;9.188;2023-06-19T12:09:26;3.40;;;3.08;;
9208;SDS011;4639;48.862;9.188;2023-06-19T12:11:55;3.70;;;2.67;;
9208;SDS011;4639;48.862;9.188;2023-06-19T12:14:21;4.43;;;2.95;;
9208;SDS011;4639;48.862;9.188;2023-06-19T12:16:47;4.18;;;2.63;;
9208;SDS011;4639;48.862;9.188;2023-06-19T12:19:12;7.30;;;2.80;;
9208;SDS011;4639;48.862;9.188;2023-06-19T12:21:38;3.08;;;2.78;;
9208;SDS011;4639;48.862;9.188;2023-06-19T12:24:04;3.25;;;2.95;;
9208;SDS011;4639;48.862;9.188;2023-06-19T12:26:30;3.00;;;2.75;;
9208;SDS011;4639;48.862;9.188;2023-06-19T12:28:56;2.72;;;2.53;;
9208;SDS011;4639;48.862;9.188;2023-06-19T12:31:21;3.03;;;2.83;;
9208;SDS011;4639;48.862;9.188;2023-06-19T12:33:47;5.53;;;2.83;;
9208;SDS011;4639;48.862;9.188;2023-06-19T12:36:14;3.20;;;2.90;;
9208;SDS011;4639;48.862;9.188;2023-06-19T12:38:40;2.83;;;2.63;;
9208;SDS011;4639;48.862;9.188;2023-06-19T12:41:06;3.15;;;2.85;;
9208;SDS011;4639;48.862;9.188;2023-06-19T12:43:32;10.00;;;2.80;;
9208;SDS011;4639;48.862;9.188;2023-06-19T12:45:57;3.05;;;2.80;;
9208;SDS011;4639;48.862;9.188;2023-06-19T12:48:27;2.70;;;2.50;;
9208;SDS011;4639;48.862;9.188;2023-06-19T12:50:53;5.03;;;2.85;;
9208;SDS011;4639;48.862;9.188;2023-06-19T12:53:18;4.22;;;2.75;;
9208;SDS011;4639;48.862;9.188;2023-06-19T12:55:44;4.47;;;3.00;;
9208;SDS011;4639;48.862;9.188;2023-06-19T12:58:10;4.90;;;3.30;;
9208;SDS011;4639;48.862;9.188;2023-06-19T13:00:36;5.20;;;2.65;;
9208;SDS011;4639;48.862;9.188;2023-06-19T13:03:02;3.10;;;2.80;;
9208;SDS011;4639;48.862;9.188;2023-06-19T13:05:28;3.13;;;2.67;;
9208;SDS011;4639;48.862;9.188;2023-06-19T13:07:54;4.05;;;3.00;;
9208;SDS011;4639;48.862;9.188;2023-06-19T13:10:20;2.95;;;2.75;;
9208;SDS011;4639;48.862;9.188;2023-06-19T13:12:45;4.93;;;2.95;;
9208;SDS011;4639;48.862;9.188;2023-06-19T13:15:11;4.53;;;2.50;;
9208;SDS011;4639;48.862;9.188;2023-06-19T13:17:36;4.32;;;2.90;;
9208;SDS011;4639;48.862;9.188;2023-06-19T13:20:02;3.20;;;2.90;;
9208;SDS011;4639;48.862;9.188;2023-06-19T13:22:30;5.40;;;3.20;;
9208;SDS011;4639;48.862;9.188;2023-06-19T13:24:55;3.42;;;2.92;;
9208;SDS011;4639;48.862;9.188;2023-06-19T13:27:21;3.67;;;2.72;;
9208;SDS011;4639;48.862;9.188;2023-06-19T13:29:47;3.88;;;3.00;;
9208;SDS011;4639;48.862;9.188;2023-06-19T13:32:12;3.20;;;2.90;;
9208;SDS011;4639;48.862;9.188;2023-06-19T13:34:38;3.20;;;2.90;;
9208;SDS011;4639;48.862;9.188;2023-06-19T13:37:03;4.13;;;2.92;;
9208;SDS011;4639;48.862;9.188;2023-06-19T13:39:29;3.17;;;2.88;;
9208;SDS011;4639;48.862;9.188;2023-06-19T13:41:55;3.47;;;2.60;;
9208;SDS011;4639;48.862;9.188;2023-06-19T13:44:21;3.03;;;2.80;;
9208;SDS011;4639;48.862;9.188;2023-06-19T13:46:47;3.00;;;2.80;;
9208;SDS011;4639;48.862;9.188;2023-06-19T13:49:12;3.22;;;3.00;;
9208;SDS011;4639;48.862;9.188;2023-06-19T13:51:38;10.13;;;3.03;;
9208;SDS011;4639;48.862;9.188;2023-06-19T13:54:04;3.50;;;3.00;;
9208;SDS011;4639;48.862;9.188;2023-06-19T13:56:30;4.80;;;2.97;;
9208;SDS011;4639;48.862;9.188;2023-06-19T13:58:59;3.42;;;3.00;;
9208;SDS011;4639;48.862;9.188;2023-06-19T14:01:25;4.90;;;2.85;;
9208;SDS011;4639;48.862;9.188;2023-06-19T14:03:51;6.60;;;3.10;;
9208;SDS011;4639;48.862;9.188;2023-06-19T14:06:16;3.20;;;2.90;;
9208;SDS011;4639;48.862;9.188;2023-06-19T14:08:42;2.95;;;2.75;;
9208;SDS011;4639;48.862;9.188;2023-06-19T14:11:08;3.15;;;2.90;;
9208;SDS011;4639;48.862;9.188;2023-06-19T14:13:34;5.50;;;2.67;;
9208;SDS011;4639;48.862;9.188;2023-06-19T14:16:00;3.35;;;2.65;;
9208;SDS011;4639;48.862;9.188;2023-06-19T14:18:26;3.13;;;2.80;;
9208;SDS011;4639;48.862;9.188;2023-06-19T14:20:52;5.18;;;2.60;;
9208;SDS011;4639;48.862;9.188;2023-06-19T14:23:17;4.97;;;2.75;;
9208;SDS011;4639;48.862;9.188;2023-06-19T14:25:43;3.42;;;2.80;;
9208;SDS011;4639;48.862;9.188;2023-06-19T14:28:08;3.45;;;2.60;;
9208;SDS011;4639;48.862;9.188;2023-06-19T14:30:34;7.70;;;2.83;;
9208;SDS011;4639;48.862;9.188;2023-06-19T14:33:00;2.78;;;2.58;;
9208;SDS011;4639;48.862;9.188;2023-06-19T14:35:26;5.25;;;3.10;;
9208;SDS011;4639;48.862;9.188;2023-06-19T14:37:52;3.45;;;2.55;;
9208;SDS011;4639;48.862;9.188;2023-06-19T14:40:17;3.00;;;2.70;;
9208;SDS011;4639;48.862;9.188;2023-06-19T14:42:43;4.38;;;2.83;;
9208;SDS011;4639;48.862;9.188;2023-06-19T14:45:09;4.57;;;2.92;;
9208;SDS011;4639;48.862;9.188;2023-06-19T14:47:35;3.45;;;2.53;;
9208;SDS011;4639;48.862;9.188;2023-06-19T14:50:00;3.90;;;2.80;;
9208;SDS011;4639;48.862;9.188;2023-06-19T14:52:26;3.08;;;2.55;;
9208;SDS011;4639;48.862;9.188;2023-06-19T14:54:52;7.57;;;3.15;;
9208;SDS011;4639;48.862;9.188;2023-06-19T14:57:17;4.80;;;2.92;;
9208;SDS011;4639;48.862;9.188;2023-06-19T14:59:43;3.47;;;2.60;;
9208;SDS011;4639;48.862;9.188;2023-06-19T15:02:11;5.47;;;2.88;;
9208;SDS011;4639;48.862;9.188;2023-06-19T15:04:37;4.13;;;2.88;;
9208;SDS011;4639;48.862;9.188;2023-06-19T15:07:03;3.50;;;2.55;;
9208;SDS011;4639;48.862;9.188;2023-06-19T15:09:29;4.10;;;2.70;;
9208;SDS011;4639;48.862;9.188;2023-06-19T15:11:56;2.97;;;2.70;;
9208;SDS011;4639;48.862;9.188;2023-06-19T15:14:21;3.30;;;3.00;;
9208;SDS011;4639;48.862;9.188;2023-06-19T15:16:47;3.00;;;2.70;;
9208;SDS011;4639;48.862;9.188;2023-06-19T15:19:12;4.70;;;2.60;;
9208;SDS011;4639;48.862;9.188;2023-06-19T15:21:38;4.93;;;2.80;;
9208;SDS011;4639;48.862;9.188;2023-06-19T15:24:04;3.83;;;2.83;;